Aviation Digital Data Service (ADDS)

Output produced by METARs form (0134 UTC 26 May 2015)
found at http://www.aviationweather.gov/adds/metars/
 
KSAV 260053Z 10007KT 10SM FEW024 SCT200 24/20 A3023 RMK AO2 SLP235 T02440200 $